createdAt,value
2018-09-27T00:00:18.464Z,15.50
2018-09-27T00:04:22.793Z,15.50
2018-09-27T00:08:26.983Z,15.50
2018-09-27T00:12:31.298Z,15.40
2018-09-27T00:16:35.391Z,15.40
2018-09-27T00:20:39.676Z,15.50
2018-09-27T00:24:44.349Z,15.40
2018-09-27T00:28:48.629Z,15.40
2018-09-27T00:32:53.186Z,15.40
2018-09-27T00:36:57.244Z,15.40
2018-09-27T00:41:01.628Z,15.40
2018-09-27T00:45:06.111Z,15.30
2018-09-27T00:49:10.767Z,15.30
2018-09-27T00:53:16.353Z,15.40
2018-09-27T00:57:20.469Z,15.30
2018-09-27T01:01:24.563Z,15.20
2018-09-27T01:05:28.722Z,15.20
2018-09-27T01:09:33.179Z,15.20
2018-09-27T01:13:37.826Z,15.20
2018-09-27T01:17:42.735Z,15.20
2018-09-27T01:21:47.562Z,15.20
2018-09-27T01:25:51.659Z,15.20
2018-09-27T01:29:55.785Z,15.20
2018-09-27T01:33:59.875Z,15.20
2018-09-27T01:38:04.114Z,15.30
2018-09-27T01:42:08.570Z,15.20
2018-09-27T01:46:13.738Z,15.10
2018-09-27T01:50:18.111Z,15.10
2018-09-27T01:54:22.538Z,15.00
2018-09-27T01:58:26.618Z,15.00
2018-09-27T02:02:30.852Z,15.00
2018-09-27T02:06:35.283Z,15.00
2018-09-27T02:10:40.184Z,15.10
2018-09-27T02:14:44.830Z,15.10
2018-09-27T02:18:49.305Z,15.10
2018-09-27T02:22:53.385Z,15.00
2018-09-27T02:26:57.439Z,15.00
2018-09-27T02:31:01.642Z,15.00
2018-09-27T02:35:05.760Z,15.00
2018-09-27T02:39:10.961Z,14.90
2018-09-27T02:43:15.560Z,14.80
2018-09-27T02:47:19.740Z,14.90
2018-09-27T02:51:24.052Z,14.90
2018-09-27T02:55:28.173Z,14.80
2018-09-27T02:59:32.296Z,14.90
2018-09-27T03:03:36.941Z,15.00
2018-09-27T03:07:42.017Z,14.90
2018-09-27T03:11:47.341Z,14.80
2018-09-27T03:15:52.083Z,14.90
2018-09-27T03:19:56.205Z,14.80
2018-09-27T03:24:00.416Z,14.80
2018-09-27T03:28:04.747Z,14.70
2018-09-27T03:32:08.807Z,14.60
2018-09-27T03:36:13.779Z,14.70
2018-09-27T03:40:18.568Z,14.70
2018-09-27T03:44:22.999Z,14.70
2018-09-27T03:48:27.064Z,14.70
2018-09-27T03:52:31.104Z,14.80
2018-09-27T03:56:35.198Z,14.70
2018-09-27T04:00:39.338Z,14.70
2018-09-27T04:04:43.597Z,14.70
2018-09-27T04:08:47.934Z,14.70
2018-09-27T04:12:52.204Z,14.60
2018-09-27T04:16:56.333Z,14.60
2018-09-27T04:21:00.410Z,14.60
2018-09-27T04:25:05.057Z,14.50
2018-09-27T04:29:09.391Z,14.60
2018-09-27T04:33:13.519Z,14.70
2018-09-27T04:37:17.646Z,14.60
2018-09-27T04:41:21.731Z,14.50
2018-09-27T04:45:25.800Z,14.50
2018-09-27T04:49:29.851Z,14.50
2018-09-27T04:53:33.915Z,14.50
2018-09-27T04:57:37.970Z,14.50
2018-09-27T05:01:42.082Z,14.40
2018-09-27T05:05:46.288Z,14.30
2018-09-27T05:09:50.359Z,14.40
2018-09-27T05:13:54.427Z,14.40
2018-09-27T05:17:58.472Z,14.30
2018-09-27T05:22:02.759Z,14.30
2018-09-27T05:26:06.814Z,14.30
2018-09-27T05:30:11.029Z,14.40
2018-09-27T05:34:16.215Z,14.30
2018-09-27T05:38:20.297Z,14.30
2018-09-27T05:42:24.452Z,14.40
2018-09-27T05:46:28.642Z,14.30
2018-09-27T05:50:32.674Z,14.20
2018-09-27T05:54:36.763Z,14.20
2018-09-27T05:58:41.681Z,14.20
2018-09-27T06:02:46.101Z,14.30
2018-09-27T06:06:50.470Z,14.20
2018-09-27T06:10:54.728Z,14.10
2018-09-27T06:14:58.884Z,14.20
2018-09-27T06:19:03.166Z,14.30
2018-09-27T06:23:07.480Z,14.50
2018-09-27T06:27:12.493Z,14.70
2018-09-27T06:31:17.116Z,14.90
2018-09-27T06:35:21.328Z,15.10
2018-09-27T06:39:25.408Z,15.30
2018-09-27T06:43:29.456Z,15.50
2018-09-27T06:47:33.796Z,15.60
2018-09-27T06:51:37.846Z,15.90
2018-09-27T06:55:42.207Z,16.10
2018-09-27T06:59:46.281Z,16.20
2018-09-27T07:03:50.329Z,16.40
2018-09-27T07:07:54.385Z,16.60
2018-09-27T07:11:58.479Z,16.80
2018-09-27T07:16:02.496Z,17.20
2018-09-27T07:20:06.645Z,17.40
2018-09-27T07:24:10.706Z,17.60
2018-09-27T07:28:15.072Z,17.60
2018-09-27T07:32:19.150Z,17.60
2018-09-27T07:36:23.199Z,17.70
2018-09-27T07:40:27.281Z,18.10
2018-09-27T07:44:31.415Z,18.30
2018-09-27T07:48:35.425Z,18.40
2018-09-27T07:52:39.476Z,18.60
2018-09-27T07:56:43.702Z,18.70
2018-09-27T08:00:47.854Z,18.90
2018-09-27T08:04:51.979Z,19.30
2018-09-27T08:08:56.143Z,19.50
2018-09-27T08:13:00.182Z,19.80
2018-09-27T08:17:04.356Z,20.10
2018-09-27T08:21:08.546Z,20.10
2018-09-27T08:25:12.523Z,19.70
2018-09-27T08:29:16.937Z,19.80
2018-09-27T08:33:20.982Z,20.30
2018-09-27T08:37:25.035Z,20.90
2018-09-27T08:41:29.475Z,21.30
2018-09-27T08:45:33.695Z,21.80
2018-09-27T08:49:37.712Z,22.40
2018-09-27T08:53:41.888Z,22.70
2018-09-27T08:57:46.128Z,23.00
2018-09-27T09:01:50.413Z,23.80
2018-09-27T09:05:54.512Z,24.50
2018-09-27T09:09:58.591Z,24.50
2018-09-27T09:14:02.672Z,25.00
2018-09-27T09:18:06.831Z,25.30
2018-09-27T09:22:10.938Z,25.20
2018-09-27T09:26:15.171Z,25.40
2018-09-27T09:30:19.438Z,25.20
2018-09-27T09:34:23.656Z,25.60
2018-09-27T09:38:28.005Z,25.60
2018-09-27T09:42:32.106Z,25.70
2018-09-27T09:46:36.156Z,26.40
2018-09-27T09:50:40.269Z,26.20
2018-09-27T09:54:44.519Z,25.90
2018-09-27T09:58:48.817Z,26.30
2018-09-27T10:02:52.877Z,25.60
2018-09-27T10:06:56.945Z,23.90
2018-09-27T10:11:01.335Z,23.40
2018-09-27T10:15:05.508Z,22.90
2018-09-27T10:19:09.578Z,22.40
2018-09-27T10:23:14.475Z,21.90
2018-09-27T10:27:18.782Z,21.30
2018-09-27T10:31:22.824Z,21.50
2018-09-27T10:35:27.726Z,21.30
2018-09-27T10:39:31.774Z,21.50
2018-09-27T10:43:35.858Z,21.30
2018-09-27T10:47:40.200Z,21.40
2018-09-27T10:51:44.380Z,21.00
2018-09-27T10:55:48.582Z,21.00
2018-09-27T10:59:52.614Z,20.90
2018-09-27T11:03:56.793Z,20.80
2018-09-27T11:08:00.999Z,20.80
2018-09-27T11:12:05.100Z,20.70
2018-09-27T11:16:09.304Z,20.50
2018-09-27T11:20:13.971Z,20.40
2018-09-27T11:24:18.451Z,20.30
2018-09-27T11:28:22.593Z,20.40
2018-09-27T11:32:30.955Z,20.20
2018-09-27T11:36:35.107Z,20.30
2018-09-27T11:40:39.148Z,20.40
2018-09-27T11:44:44.468Z,20.50
2018-09-27T11:48:49.103Z,20.50
2018-09-27T11:52:53.349Z,20.50
2018-09-27T11:56:57.435Z,20.50
2018-09-27T12:01:01.599Z,20.60
2018-09-27T12:05:05.779Z,20.50
2018-09-27T12:09:11.664Z,20.50
2018-09-27T12:13:15.915Z,20.50
2018-09-27T12:17:20.341Z,20.40
2018-09-27T12:21:24.448Z,20.50
2018-09-27T12:25:28.526Z,20.60
2018-09-27T12:29:32.656Z,20.50
2018-09-27T12:33:36.804Z,20.50
2018-09-27T12:37:40.905Z,20.40
2018-09-27T12:41:46.816Z,20.30
2018-09-27T12:45:51.101Z,20.40
2018-09-27T12:49:55.151Z,20.40
2018-09-27T12:53:59.204Z,20.40
2018-09-27T12:58:03.262Z,20.30
2018-09-27T13:02:07.727Z,20.30
2018-09-27T13:06:12.347Z,20.40
2018-09-27T13:10:16.661Z,20.30
2018-09-27T13:14:20.823Z,20.30
2018-09-27T13:18:24.865Z,20.40
2018-09-27T13:22:29.058Z,20.30
2018-09-27T13:26:33.393Z,20.40
2018-09-27T13:30:37.410Z,20.50
2018-09-27T13:34:41.561Z,20.50
2018-09-27T13:38:46.285Z,20.50
2018-09-27T13:42:50.573Z,20.40
2018-09-27T13:46:54.707Z,20.40
2018-09-27T13:50:58.842Z,20.30
2018-09-27T13:55:02.999Z,20.40
2018-09-27T13:59:07.181Z,20.30
2018-09-27T14:03:11.381Z,20.20
2018-09-27T14:07:15.965Z,20.30
2018-09-27T16:30:08.400Z,19.60
2018-09-27T16:34:12.501Z,19.60
2018-09-27T16:38:16.957Z,19.60
2018-09-27T16:42:21.074Z,19.60
2018-09-27T16:46:26.120Z,19.60
2018-09-27T16:50:30.243Z,19.50
2018-09-27T16:54:34.428Z,19.40
2018-09-27T16:58:38.522Z,19.30
2018-09-27T17:02:44.454Z,19.20
2018-09-27T17:06:49.464Z,19.10
2018-09-27T17:10:55.010Z,19.10
2018-09-27T17:14:59.145Z,19.00
2018-09-27T17:19:03.411Z,18.90
2018-09-27T17:23:07.511Z,18.80
2018-09-27T17:27:11.691Z,18.70
2018-09-27T17:31:15.853Z,18.60
2018-09-27T17:35:20.346Z,18.60
2018-09-27T17:39:24.495Z,18.50
2018-09-27T17:43:28.670Z,18.50
2018-09-27T17:47:32.758Z,18.40
2018-09-27T17:51:36.896Z,18.30
2018-09-27T17:55:41.008Z,18.30
2018-09-27T17:59:45.717Z,18.30
2018-09-27T18:03:49.911Z,18.10
2018-09-27T18:07:54.063Z,18.20
2018-09-27T18:11:58.286Z,18.20
2018-09-27T18:16:03.332Z,18.10
2018-09-27T18:20:07.978Z,18.10
2018-09-27T18:24:12.686Z,18.00
2018-09-27T18:28:16.954Z,17.90
2018-09-27T18:32:22.120Z,17.90
2018-09-27T18:36:26.266Z,17.80
2018-09-27T18:40:30.467Z,17.80
2018-09-27T18:44:34.565Z,17.80
2018-09-27T18:48:38.834Z,17.70
2018-09-27T18:52:45.117Z,17.60
2018-09-27T18:56:50.078Z,17.70
2018-09-27T19:00:54.608Z,17.60
2018-09-27T19:04:58.798Z,17.60
2018-09-27T19:09:02.935Z,17.50
2018-09-27T19:13:07.018Z,17.40
2018-09-27T19:17:15.589Z,17.40
2018-09-27T19:21:22.814Z,17.30
2018-09-27T19:25:27.233Z,17.30
2018-09-27T19:29:31.441Z,17.10
2018-09-27T19:33:39.140Z,17.20
2018-09-27T19:37:52.127Z,17.20
2018-09-27T19:41:56.890Z,17.10
2018-09-27T19:46:01.013Z,17.20
2018-09-27T20:36:23.495Z,16.50
2018-09-27T20:40:27.611Z,16.60
2018-09-27T20:44:31.740Z,16.60
2018-09-27T20:48:35.870Z,16.60
2018-09-27T20:52:39.930Z,16.50
2018-09-27T20:56:44.150Z,16.40
2018-09-27T21:00:48.321Z,16.40
2018-09-27T21:04:52.399Z,16.30
2018-09-27T21:08:56.566Z,16.40
2018-09-27T21:13:00.944Z,16.40
2018-09-27T21:17:05.024Z,16.40
2018-09-27T21:21:09.094Z,16.40
2018-09-27T21:25:13.634Z,16.30
2018-09-27T21:29:18.271Z,16.30
2018-09-27T21:33:22.902Z,16.30
2018-09-27T21:37:27.002Z,16.30
2018-09-27T21:41:31.046Z,16.30
2018-09-27T21:45:35.131Z,16.30
2018-09-27T21:49:39.326Z,16.30
2018-09-27T21:53:43.591Z,16.30
2018-09-27T21:57:47.993Z,16.40
2018-09-27T22:01:52.143Z,16.30
2018-09-27T22:05:56.283Z,16.30
2018-09-27T22:10:00.343Z,16.30
2018-09-27T22:14:04.464Z,16.30
2018-09-27T22:18:08.615Z,16.30
2018-09-27T22:22:12.958Z,16.20
2018-09-27T22:26:17.189Z,16.30
2018-09-27T22:30:21.279Z,16.30
2018-09-27T22:34:25.408Z,16.30
2018-09-27T22:38:29.536Z,16.20
2018-09-27T22:42:33.595Z,16.20
2018-09-27T22:46:37.644Z,16.20
2018-09-27T22:50:43.026Z,16.10
2018-09-27T22:54:47.348Z,16.20
2018-09-27T22:58:51.480Z,16.20
2018-09-27T23:02:55.593Z,16.20
2018-09-27T23:06:59.684Z,16.10
2018-09-27T23:11:03.782Z,16.30
2018-09-27T23:15:08.150Z,16.20
2018-09-27T23:19:12.335Z,16.30
2018-09-27T23:23:16.499Z,16.40
2018-09-27T23:27:20.766Z,16.30
2018-09-27T23:31:25.044Z,16.40
2018-09-27T23:35:29.128Z,16.50
2018-09-27T23:39:33.212Z,16.50
2018-09-27T23:43:37.403Z,16.40
2018-09-27T23:47:41.549Z,16.40
2018-09-27T23:51:45.918Z,16.40
2018-09-27T23:55:50.074Z,16.50
2018-09-27T23:59:54.167Z,16.40
